Time;durP1;ratioP1;P1;durP2;ratioP2;P2;SDS_P1;SDS_P2;PMS_P1;PMS_P2;Temp;Humidity;BMP_temperature;BMP_pressure;BME280_temperature;BME280_humidity;BME280_pressure;Samples;Min_cycle;Max_cycle;Signal;HPM_P1;HPM_P2
2023/05/18 00:02:15;;;;;;;5.37;3.20;;;7.70;99.90;;;;;;5093626;28;20661;-67
2023/05/18 00:04:41;;;;;;;8.57;4.20;;;7.60;99.90;;;;;;5094024;28;20175;-67
2023/05/18 00:07:08;;;;;;;4.30;2.83;;;7.60;99.90;;;;;;5095356;28;20408;-66
2023/05/18 00:09:35;;;;;;;13.83;3.77;;;7.60;99.90;;;;;;5095151;28;20396;-66
2023/05/18 00:12:02;;;;;;;6.37;3.10;;;7.60;99.90;;;;;;5094005;28;20410;-68
2023/05/18 00:14:28;;;;;;;4.20;3.73;;;7.60;99.90;;;;;;5095248;28;20790;-66
2023/05/18 00:16:54;;;;;;;5.23;3.23;;;7.60;99.90;;;;;;5095055;28;20408;-65
2023/05/18 00:19:22;;;;;;;3.23;2.87;;;7.70;99.90;;;;;;5094929;28;20912;-67
2023/05/18 00:21:50;;;;;;;5.40;3.80;;;7.60;99.90;;;;;;5092302;28;20263;-67
2023/05/18 00:24:16;;;;;;;4.37;4.00;;;7.50;99.90;;;;;;5094666;28;20491;-66
2023/05/18 00:26:44;;;;;;;3.77;3.00;;;7.50;99.90;;;;;;5094896;28;20407;-66
2023/05/18 00:29:10;;;;;;;4.93;2.63;;;7.50;99.90;;;;;;5093543;28;20862;-66
2023/05/18 00:31:38;;;;;;;4.07;3.20;;;7.50;99.90;;;;;;5093886;28;20391;-66
2023/05/18 00:34:12;;;;;;;8.87;3.80;;;7.50;99.90;;;;;;5094578;28;20769;-67
2023/05/18 00:36:38;;;;;;;9.30;3.77;;;7.50;99.90;;;;;;5094540;28;20399;-66
2023/05/18 00:39:06;;;;;;;6.57;4.30;;;7.50;99.90;;;;;;5093865;28;20897;-66
2023/05/18 00:41:32;;;;;;;5.53;3.73;;;7.40;99.90;;;;;;5093754;28;20445;-67
2023/05/18 00:43:59;;;;;;;9.00;3.10;;;7.40;99.90;;;;;;5094453;28;20762;-67
2023/05/18 00:46:26;;;;;;;9.07;5.00;;;7.30;99.90;;;;;;5094464;28;20396;-66
2023/05/18 00:48:53;;;;;;;8.03;3.40;;;7.20;99.90;;;;;;5094311;28;20448;-66
2023/05/18 00:51:24;;;;;;;5.73;3.57;;;7.10;99.90;;;;;;5093483;28;20403;-67
2023/05/18 00:53:55;;;;;;;4.63;3.83;;;7.00;99.90;;;;;;5094427;28;20434;-66
2023/05/18 00:56:25;;;;;;;4.13;3.20;;;6.90;99.90;;;;;;5094312;28;20490;-66
2023/05/18 00:58:55;;;;;;;4.33;3.20;;;6.90;99.90;;;;;;5093439;28;20893;-66
2023/05/18 01:01:35;;;;;;;4.10;3.70;;;6.90;99.90;;;;;;5093257;28;20791;-66
2023/05/18 01:04:03;;;;;;;10.80;4.53;;;6.90;99.90;;;;;;5094104;28;20503;-66
2023/05/18 01:06:34;;;;;;;10.73;4.20;;;6.90;99.90;;;;;;5094063;28;20440;-66
2023/05/18 01:09:03;;;;;;;8.20;3.43;;;6.90;99.90;;;;;;5094083;28;20451;-66
2023/05/18 01:11:57;;;;;;;7.23;3.43;;;7.00;99.90;;;;;;5093124;28;20918;-66
2023/05/18 01:14:48;;;;;;;5.87;3.30;;;7.00;99.90;;;;;;5075896;28;20431;-67
2023/05/18 01:17:46;;;;;;;5.30;3.27;;;7.00;99.90;;;;;;5093559;28;20931;-67
2023/05/18 01:20:19;;;;;;;6.33;3.60;;;7.00;99.90;;;;;;5092906;28;20395;-66
2023/05/18 01:23:03;;;;;;;7.53;3.70;;;7.00;99.90;;;;;;5093538;28;20451;-66
2023/05/18 01:25:43;;;;;;;5.40;3.17;;;7.00;99.90;;;;;;5093746;28;20457;-66
2023/05/18 01:28:16;;;;;;;5.77;2.83;;;7.00;99.90;;;;;;5092321;28;20443;-66
2023/05/18 01:30:43;;;;;;;4.43;3.20;;;7.00;99.90;;;;;;5092683;28;20396;-67
2023/05/18 01:33:12;;;;;;;4.50;3.20;;;7.00;99.90;;;;;;5092623;28;20411;-66
2023/05/18 01:35:48;;;;;;;4.93;3.30;;;6.90;99.90;;;;;;5093674;28;20479;-66
2023/05/18 01:38:18;;;;;;;11.13;4.47;;;6.90;99.90;;;;;;5093562;28;20415;-66
2023/05/18 01:40:59;;;;;;;3.80;3.50;;;6.90;99.90;;;;;;5092523;28;20403;-66
2023/05/18 01:43:33;;;;;;;3.67;3.30;;;6.90;99.90;;;;;;5093381;28;20463;-66
2023/05/18 01:46:10;;;;;;;4.73;3.37;;;6.90;99.90;;;;;;5092110;28;20423;-67
2023/05/18 01:48:38;;;;;;;8.37;3.83;;;6.90;99.90;;;;;;5093369;28;20489;-67
2023/05/18 01:51:05;;;;;;;7.90;4.23;;;6.90;99.90;;;;;;5092039;28;20440;-67
2023/05/18 01:53:38;;;;;;;6.07;3.77;;;6.90;99.90;;;;;;5091796;28;20431;-67
2023/05/18 01:56:07;;;;;;;12.23;3.80;;;7.00;99.90;;;;;;5093363;28;20426;-66
2023/05/18 01:58:34;;;;;;;4.27;3.70;;;7.00;99.90;;;;;;5091960;28;20419;-67
2023/05/18 02:01:00;;;;;;;8.20;3.33;;;7.00;99.90;;;;;;5092323;28;20403;-66
2023/05/18 02:03:25;;;;;;;9.00;3.87;;;7.00;99.90;;;;;;5093179;28;20772;-66
2023/05/18 02:05:51;;;;;;;7.40;3.30;;;7.00;99.90;;;;;;5093264;28;20170;-66
2023/05/18 02:08:17;;;;;;;3.93;3.30;;;7.00;99.90;;;;;;5091289;28;20280;-67
2023/05/18 02:10:42;;;;;;;4.27;3.87;;;7.00;99.90;;;;;;5090763;28;20622;-66
2023/05/18 02:13:08;;;;;;;9.60;4.20;;;6.90;99.90;;;;;;5093046;28;20208;-67
2023/05/18 02:15:34;;;;;;;6.03;2.83;;;6.90;99.90;;;;;;5093164;28;20362;-66
2023/05/18 02:17:59;;;;;;;6.00;3.60;;;6.90;99.90;;;;;;5093049;28;20185;-67
2023/05/18 02:20:25;;;;;;;3.83;3.43;;;6.90;99.90;;;;;;5091197;28;20173;-66
2023/05/18 02:22:51;;;;;;;8.50;3.80;;;6.90;99.90;;;;;;5092740;28;20215;-67
2023/05/18 02:25:17;;;;;;;4.90;3.50;;;6.90;99.90;;;;;;5092877;28;20209;-67
2023/05/18 02:27:43;;;;;;;5.20;3.37;;;6.90;99.90;;;;;;5093092;28;20189;-67
2023/05/18 02:30:09;;;;;;;8.70;3.80;;;6.90;99.90;;;;;;5091195;28;20419;-66
2023/05/18 02:32:38;;;;;;;4.70;3.23;;;6.80;99.90;;;;;;5092928;28;20185;-67
2023/05/18 02:35:07;;;;;;;7.43;3.50;;;6.80;99.90;;;;;;5092917;28;20753;-67
2023/05/18 02:37:38;;;;;;;13.23;4.07;;;6.70;99.90;;;;;;5092758;28;20450;-66
2023/05/18 02:40:05;;;;;;;9.70;4.47;;;6.70;99.90;;;;;;5092444;28;20752;-71
2023/05/18 02:42:31;;;;;;;12.53;4.27;;;6.60;99.90;;;;;;5092867;28;20450;-67
2023/05/18 02:44:56;;;;;;;9.00;3.60;;;6.60;99.90;;;;;;5093977;28;20403;-67
2023/05/18 02:47:22;;;;;;;9.97;4.00;;;6.50;99.90;;;;;;5096137;28;20276;-67
2023/05/18 02:49:47;;;;;;;8.77;3.90;;;6.50;99.90;;;;;;5096294;28;20166;-69
2023/05/18 02:52:15;;;;;;;7.27;3.23;;;6.50;99.90;;;;;;5095826;28;20165;-65
2023/05/18 02:54:41;;;;;;;5.60;3.93;;;6.40;99.90;;;;;;5096753;28;20193;-66
2023/05/18 02:57:06;;;;;;;9.30;3.90;;;6.40;99.90;;;;;;5096739;28;20446;-67
2023/05/18 02:59:32;;;;;;;5.77;3.63;;;6.30;99.90;;;;;;5096565;28;20173;-66
2023/05/18 03:01:58;;;;;;;5.13;3.77;;;6.30;99.90;;;;;;5095635;28;20214;-66
2023/05/18 03:04:24;;;;;;;7.03;4.07;;;6.30;99.90;;;;;;5094928;28;20185;-67
2023/05/18 03:06:51;;;;;;;8.33;3.83;;;6.30;99.90;;;;;;5095644;28;20169;-66
2023/05/18 03:09:18;;;;;;;4.53;3.90;;;6.30;99.90;;;;;;5096199;28;20536;-66
2023/05/18 03:11:43;;;;;;;9.60;4.27;;;6.30;99.90;;;;;;5095533;28;20467;-66
2023/05/18 03:14:09;;;;;;;9.03;4.83;;;6.30;99.90;;;;;;5096242;28;20473;-66
2023/05/18 03:16:37;;;;;;;8.50;3.63;;;6.40;99.90;;;;;;5096312;28;20170;-67
2023/05/18 03:19:03;;;;;;;10.60;3.93;;;6.40;99.90;;;;;;5096286;28;20157;-66
2023/05/18 03:21:32;;;;;;;5.80;3.60;;;6.40;99.90;;;;;;5095169;28;20791;-67
2023/05/18 03:23:59;;;;;;;11.70;3.70;;;6.20;99.90;;;;;;5094214;28;20458;-67
2023/05/18 03:26:25;;;;;;;11.33;3.83;;;6.20;99.90;;;;;;5095844;28;20921;-66
2023/05/18 03:28:50;;;;;;;5.60;3.10;;;6.20;99.90;;;;;;5095876;28;20443;-66
2023/05/18 03:31:16;;;;;;;4.30;4.00;;;6.30;99.90;;;;;;5095120;28;20395;-67
2023/05/18 03:33:42;;;;;;;5.63;3.80;;;6.40;99.90;;;;;;5094507;28;20190;-66
2023/05/18 03:36:08;;;;;;;5.33;3.97;;;6.40;99.90;;;;;;5095872;28;20162;-66
2023/05/18 03:38:34;;;;;;;6.70;3.33;;;6.30;99.90;;;;;;5095832;28;20219;-67
2023/05/18 03:40:59;;;;;;;6.37;4.27;;;6.20;99.90;;;;;;5094144;28;20170;-68
2023/05/18 03:43:25;;;;;;;10.77;3.50;;;6.20;99.90;;;;;;5095454;28;20654;-67
2023/05/18 03:45:52;;;;;;;6.90;3.60;;;6.30;99.90;;;;;;5095753;28;20166;-67
2023/05/18 03:48:17;;;;;;;5.27;4.13;;;6.30;99.90;;;;;;5095587;28;20196;-66
2023/05/18 03:50:43;;;;;;;11.40;3.63;;;6.40;99.90;;;;;;5094758;28;20396;-67
2023/05/18 03:53:09;;;;;;;7.10;3.93;;;6.50;99.90;;;;;;5095569;28;20239;-66
2023/05/18 03:55:35;;;;;;;4.27;3.50;;;6.60;99.90;;;;;;5095417;28;20572;-67
2023/05/18 03:58:02;;;;;;;10.43;3.13;;;6.60;99.90;;;;;;5095362;28;20168;-66
2023/05/18 04:00:27;;;;;;;6.40;3.73;;;6.70;99.90;;;;;;5093763;28;20838;-66
2023/05/18 04:02:53;;;;;;;5.93;4.03;;;6.70;99.90;;;;;;5095287;28;20515;-66
2023/05/18 04:05:19;;;;;;;9.50;4.13;;;6.70;99.90;;;;;;5095361;28;20170;-67
2023/05/18 04:07:45;;;;;;;5.33;3.13;;;6.60;99.90;;;;;;5095209;28;20565;-67
2023/05/18 04:10:12;;;;;;;3.80;3.50;;;6.70;99.90;;;;;;5093079;28;20238;-66
2023/05/18 04:12:39;;;;;;;9.73;4.70;;;6.70;99.90;;;;;;5095024;28;20438;-67
2023/05/18 04:15:05;;;;;;;8.37;4.37;;;6.80;99.90;;;;;;5095271;28;20419;-66
2023/05/18 04:17:32;;;;;;;8.57;2.80;;;6.90;99.90;;;;;;5093743;28;20493;-65
2023/05/18 04:19:58;;;;;;;6.20;4.00;;;7.00;99.90;;;;;;5093650;28;20427;-67
2023/05/18 04:22:28;;;;;;;5.47;3.27;;;7.00;99.90;;;;;;5094357;28;20927;-65
2023/05/18 04:24:56;;;;;;;4.17;3.20;;;7.10;99.90;;;;;;5094830;28;20663;-66
2023/05/18 04:27:21;;;;;;;12.13;3.93;;;7.20;99.90;;;;;;5094769;28;20872;-66
2023/05/18 04:29:48;;;;;;;5.10;3.20;;;7.20;99.90;;;;;;5094727;28;20490;-70
2023/05/18 04:32:17;;;;;;;8.93;3.03;;;7.30;99.90;;;;;;5093878;28;20161;-66
2023/05/18 04:34:42;;;;;;;4.00;3.13;;;7.40;99.90;;;;;;5093427;28;20917;-67
2023/05/18 04:37:09;;;;;;;5.03;3.67;;;7.40;99.90;;;;;;5094809;28;20403;-66
2023/05/18 04:39:38;;;;;;;5.27;3.13;;;7.40;99.90;;;;;;5094161;28;20303;-67
2023/05/18 04:42:04;;;;;;;9.90;4.00;;;7.50;99.90;;;;;;5093259;28;20396;-67
2023/05/18 04:44:32;;;;;;;4.70;3.57;;;7.60;99.90;;;;;;5094565;28;20407;-66
2023/05/18 04:46:59;;;;;;;13.73;3.90;;;7.60;99.90;;;;;;5094526;28;20397;-66
2023/05/18 04:49:25;;;;;;;7.47;3.20;;;7.70;99.90;;;;;;5094403;28;20536;-66
2023/05/18 04:51:56;;;;;;;9.00;3.90;;;7.80;99.90;;;;;;5093781;28;20438;-66
2023/05/18 04:54:23;;;;;;;9.87;3.23;;;7.90;99.90;;;;;;5094308;28;20659;-67
2023/05/18 04:56:49;;;;;;;10.20;3.87;;;8.00;99.90;;;;;;5094369;28;20396;-67
2023/05/18 04:59:15;;;;;;;6.03;3.30;;;8.00;99.90;;;;;;5094082;28;20410;-66
2023/05/18 05:01:41;;;;;;;2.80;2.60;;;8.10;99.90;;;;;;5092705;28;20402;-66
2023/05/18 05:04:06;;;;;;;10.00;2.97;;;8.20;99.90;;;;;;5094178;28;20190;-66
2023/05/18 05:06:32;;;;;;;3.53;3.00;;;8.20;99.90;;;;;;5093658;28;20194;-67
2023/05/18 05:08:58;;;;;;;6.27;3.80;;;8.30;99.90;;;;;;5094121;28;20193;-66
2023/05/18 05:11:23;;;;;;;4.50;3.20;;;8.40;99.90;;;;;;5093228;28;20170;-66
2023/05/18 05:13:49;;;;;;;8.60;3.47;;;8.40;99.90;;;;;;5093987;28;20196;-66
2023/05/18 05:16:15;;;;;;;7.80;3.77;;;8.50;99.90;;;;;;5092368;28;20171;-67
2023/05/18 05:18:40;;;;;;;8.13;3.63;;;8.50;99.90;;;;;;5093264;28;20171;-66
2023/05/18 05:21:07;;;;;;;11.40;3.20;;;8.50;99.90;;;;;;5091805;28;20199;-65
2023/05/18 05:23:33;;;;;;;6.47;3.33;;;8.60;99.90;;;;;;5093622;28;20210;-66
2023/05/18 05:25:58;;;;;;;11.67;4.10;;;8.60;99.90;;;;;;5093755;28;20412;-67
2023/05/18 05:28:24;;;;;;;7.80;2.93;;;8.60;99.90;;;;;;5093594;28;20197;-66
2023/05/18 05:30:50;;;;;;;4.63;2.40;;;8.70;99.90;;;;;;5092781;28;20164;-66
2023/05/18 05:33:16;;;;;;;4.70;2.90;;;8.80;99.90;;;;;;5091981;28;20190;-67
2023/05/18 05:35:42;;;;;;;5.87;3.03;;;8.90;99.90;;;;;;5091866;28;20176;-66
2023/05/18 05:38:08;;;;;;;5.63;3.10;;;8.90;99.90;;;;;;5093497;28;20406;-66
2023/05/18 05:40:34;;;;;;;6.80;3.00;;;9.00;99.90;;;;;;5092563;28;20180;-67
2023/05/18 05:42:59;;;;;;;4.33;2.83;;;9.00;99.90;;;;;;5093439;28;20196;-65
2023/05/18 05:45:27;;;;;;;8.97;3.93;;;9.00;99.90;;;;;;5093529;28;20178;-65
2023/05/18 05:47:53;;;;;;;8.10;2.77;;;9.00;99.90;;;;;;5093441;28;20550;-68
2023/05/18 05:50:19;;;;;;;5.57;3.10;;;9.00;99.90;;;;;;5092546;28;20478;-66
2023/05/18 05:52:44;;;;;;;10.40;2.83;;;9.00;99.90;;;;;;5092848;28;20215;-66
2023/05/18 05:55:10;;;;;;;6.93;3.00;;;9.10;99.90;;;;;;5092887;28;20377;-67
2023/05/18 05:57:36;;;;;;;3.37;3.00;;;9.30;99.90;;;;;;5093244;28;20227;-66
2023/05/18 06:00:03;;;;;;;3.13;2.60;;;9.40;99.90;;;;;;5093082;28;20176;-66
2023/05/18 06:02:29;;;;;;;7.27;2.97;;;9.40;99.90;;;;;;5092864;28;20211;-67
2023/05/18 06:04:55;;;;;;;8.50;2.87;;;9.40;99.90;;;;;;5093136;28;20825;-66
2023/05/18 06:07:21;;;;;;;3.83;3.40;;;9.40;99.90;;;;;;5093225;28;20468;-66
2023/05/18 06:09:46;;;;;;;6.93;3.23;;;9.30;99.90;;;;;;5091182;28;20217;-67
2023/05/18 06:12:12;;;;;;;7.20;2.90;;;9.30;99.90;;;;;;5090663;28;20188;-66
2023/05/18 06:14:37;;;;;;;5.27;3.17;;;9.40;99.90;;;;;;5093152;28;20169;-66
2023/05/18 06:17:03;;;;;;;7.00;2.93;;;9.40;99.90;;;;;;5093156;28;20169;-67
2023/05/18 06:19:29;;;;;;;7.50;2.93;;;9.50;99.90;;;;;;5095006;28;20176;-66
2023/05/18 06:21:55;;;;;;;13.80;2.90;;;9.60;99.90;;;;;;5096449;28;20434;-67
2023/05/18 06:24:20;;;;;;;8.87;5.63;;;9.60;99.90;;;;;;5097081;28;20676;-68
2023/05/18 06:26:46;;;;;;;3.23;2.47;;;9.50;99.90;;;;;;5096695;28;20175;-68
2023/05/18 06:29:12;;;;;;;10.90;3.30;;;9.60;99.90;;;;;;5096762;28;20586;-67
2023/05/18 06:31:38;;;;;;;7.00;3.63;;;9.60;99.90;;;;;;5096230;28;20290;-66
2023/05/18 06:34:06;;;;;;;7.27;2.87;;;9.60;99.90;;;;;;5096992;28;20546;-66
2023/05/18 06:36:33;;;;;;;4.10;3.70;;;9.70;99.90;;;;;;5097132;28;20478;-68
2023/05/18 06:38:58;;;;;;;4.57;2.70;;;9.80;99.90;;;;;;5096851;28;20396;-67
2023/05/18 06:41:24;;;;;;;6.20;3.20;;;9.90;99.90;;;;;;5096041;28;20938;-66
2023/05/18 06:43:50;;;;;;;4.60;2.67;;;9.70;99.90;;;;;;5096355;28;20192;-68
2023/05/18 06:46:20;;;;;;;10.50;3.07;;;9.80;99.90;;;;;;5095306;28;20538;-66
2023/05/18 06:48:46;;;;;;;4.07;3.13;;;9.90;99.90;;;;;;5096767;28;20201;-66
2023/05/18 06:51:11;;;;;;;3.10;2.50;;;10.00;99.90;;;;;;5095870;28;20445;-68
2023/05/18 06:53:37;;;;;;;7.20;3.37;;;10.10;99.90;;;;;;5096643;28;20196;-66
2023/05/18 06:56:03;;;;;;;7.30;2.63;;;10.10;99.90;;;;;;5096815;28;20249;-66
2023/05/18 06:58:29;;;;;;;9.13;2.87;;;10.00;99.90;;;;;;5096805;28;20192;-67
2023/05/18 07:00:55;;;;;;;5.83;2.87;;;10.10;99.90;;;;;;5095671;28;20408;-66
2023/05/18 07:03:20;;;;;;;7.03;4.67;;;10.20;99.90;;;;;;5095311;28;20210;-67
2023/05/18 07:05:46;;;;;;;8.00;3.23;;;10.30;99.90;;;;;;5095328;28;20645;-67
2023/05/18 07:08:12;;;;;;;7.93;2.90;;;10.50;99.90;;;;;;5096380;28;20197;-67
2023/05/18 07:10:37;;;;;;;6.17;2.80;;;10.60;99.90;;;;;;5094657;28;20165;-67
2023/05/18 07:13:05;;;;;;;4.53;3.10;;;10.50;99.90;;;;;;5096401;28;20181;-68
2023/05/18 07:15:31;;;;;;;3.27;3.07;;;10.60;99.90;;;;;;5096241;28;20174;-67
2023/05/18 07:17:56;;;;;;;4.63;2.97;;;10.70;99.90;;;;;;5096648;28;20953;-68
2023/05/18 07:20:22;;;;;;;5.03;2.93;;;10.80;99.90;;;;;;5094850;28;20162;-67
2023/05/18 07:22:48;;;;;;;3.80;3.40;;;10.70;99.90;;;;;;5095991;28;20193;-66
2023/05/18 07:25:14;;;;;;;5.40;2.63;;;10.80;99.90;;;;;;5096226;28;20169;-67
2023/05/18 07:27:40;;;;;;;4.83;3.00;;;10.80;99.90;;;;;;5096046;28;20257;-68
2023/05/18 07:30:07;;;;;;;8.60;3.50;;;10.70;99.90;;;;;;5094909;28;20388;-67
2023/05/18 07:32:33;;;;;;;7.60;3.13;;;10.50;99.90;;;;;;5096010;28;20421;-67
2023/05/18 07:34:59;;;;;;;13.97;3.90;;;10.50;99.90;;;;;;5095968;28;20400;-67
2023/05/18 07:37:25;;;;;;;5.03;2.83;;;10.50;99.90;;;;;;5095436;28;20162;-67
2023/05/18 07:39:51;;;;;;;7.93;3.37;;;10.50;99.90;;;;;;5095137;28;20729;-67
2023/05/18 07:42:17;;;;;;;7.73;3.37;;;10.70;99.90;;;;;;5095273;28;20495;-67
2023/05/18 07:44:42;;;;;;;7.63;3.30;;;10.80;99.90;;;;;;5095780;28;20373;-67
2023/05/18 07:47:08;;;;;;;6.10;2.90;;;10.60;99.90;;;;;;5095774;28;20158;-67
2023/05/18 07:49:34;;;;;;;9.10;3.40;;;10.60;99.90;;;;;;5095624;28;20169;-66
2023/05/18 07:52:01;;;;;;;6.53;3.07;;;10.50;99.90;;;;;;5093608;28;20161;-66
2023/05/18 07:54:27;;;;;;;4.83;3.10;;;10.40;99.90;;;;;;5095732;28;20219;-67
2023/05/18 07:56:52;;;;;;;9.00;3.23;;;10.30;99.90;;;;;;5095357;28;20922;-67
2023/05/18 07:59:18;;;;;;;4.80;3.27;;;10.30;99.90;;;;;;5094654;28;20200;-68
2023/05/18 08:01:44;;;;;;;6.87;3.40;;;10.20;99.90;;;;;;5094810;28;20165;-68
2023/05/18 08:04:10;;;;;;;8.07;3.93;;;10.10;99.90;;;;;;5095202;28;20432;-66
2023/05/18 08:06:36;;;;;;;3.33;2.80;;;10.10;99.90;;;;;;5095090;28;20169;-68
2023/05/18 08:09:02;;;;;;;8.20;3.80;;;10.00;99.90;;;;;;5095252;28;20197;-66
2023/05/18 08:11:28;;;;;;;4.70;3.00;;;10.10;99.90;;;;;;5094490;28;20387;-66
2023/05/18 08:13:53;;;;;;;6.17;3.43;;;10.30;99.90;;;;;;5094656;28;20910;-68
2023/05/18 08:16:19;;;;;;;2.93;2.53;;;10.40;99.90;;;;;;5094891;28;20518;-66
2023/05/18 08:18:45;;;;;;;3.13;2.80;;;10.60;99.90;;;;;;5095104;28;20585;-66
2023/05/18 08:21:11;;;;;;;9.50;3.43;;;10.80;99.90;;;;;;5094408;28;20173;-68
2023/05/18 08:23:37;;;;;;;4.63;3.20;;;10.90;99.90;;;;;;5094754;28;20278;-67
2023/05/18 08:26:03;;;;;;;5.57;3.00;;;11.00;99.90;;;;;;5094851;28;20411;-66
2023/05/18 08:28:29;;;;;;;4.53;3.10;;;11.10;99.90;;;;;;5094984;28;20422;-66
2023/05/18 08:30:55;;;;;;;3.20;2.77;;;11.30;99.90;;;;;;5093994;28;20154;-67
2023/05/18 08:33:22;;;;;;;5.67;2.90;;;11.40;99.90;;;;;;5094231;28;20470;-67
2023/05/18 08:35:48;;;;;;;7.83;2.83;;;11.50;99.90;;;;;;5094815;28;20367;-66
2023/05/18 08:38:15;;;;;;;2.77;2.60;;;11.50;99.90;;;;;;5094673;28;20408;-67
2023/05/18 08:41:07;;;;;;;4.63;2.87;;;11.70;99.90;;;;;;5094198;28;20431;-67
2023/05/18 08:43:37;;;;;;;4.03;2.30;;;11.80;99.90;;;;;;5094202;28;20447;-66
2023/05/18 08:46:05;;;;;;;5.00;2.60;;;12.00;99.90;;;;;;5094645;28;20453;-63
2023/05/18 08:48:32;;;;;;;5.10;3.13;;;12.00;99.90;;;;;;5092171;28;21013;-68
2023/05/18 08:51:00;;;;;;;7.43;2.50;;;12.10;99.90;;;;;;5093875;28;20366;-68
2023/05/18 08:53:26;;;;;;;7.00;3.23;;;12.40;99.90;;;;;;5093058;28;20406;-66
2023/05/18 08:55:53;;;;;;;6.13;2.87;;;12.50;99.90;;;;;;5093177;28;20457;-68
2023/05/18 08:58:26;;;;;;;5.63;2.63;;;12.60;99.90;;;;;;5094236;28;20731;-67
2023/05/18 09:00:53;;;;;;;6.40;3.00;;;12.80;99.90;;;;;;5093645;28;20389;-66
2023/05/18 09:03:20;;;;;;;7.50;2.83;;;13.00;99.90;;;;;;5093989;28;20425;-67
2023/05/18 09:05:47;;;;;;;3.03;2.83;;;13.00;99.90;;;;;;5093810;28;20735;-67
2023/05/18 09:08:14;;;;;;;10.17;3.70;;;13.10;99.90;;;;;;5092477;28;20450;-68
2023/05/18 09:10:40;;;;;;;5.67;2.73;;;13.40;99.90;;;;;;5093396;28;20377;-67
2023/05/18 09:13:07;;;;;;;4.27;2.80;;;13.50;99.90;;;;;;5094010;28;20394;-67
2023/05/18 09:15:34;;;;;;;3.77;2.50;;;13.60;99.90;;;;;;5093989;28;20387;-66
2023/05/18 09:17:59;;;;;;;5.23;2.33;;;13.80;99.90;;;;;;5094072;28;20395;-67
2023/05/18 09:20:26;;;;;;;6.03;3.03;;;13.90;99.90;;;;;;5092018;28;20795;-67
2023/05/18 09:22:52;;;;;;;4.70;2.97;;;14.00;99.90;;;;;;5093628;28;20193;-67
2023/05/18 09:25:19;;;;;;;3.40;2.80;;;13.90;99.90;;;;;;5093863;28;20756;-67
2023/05/18 09:27:47;;;;;;;4.27;2.83;;;13.80;99.90;;;;;;5092810;28;20467;-67
2023/05/18 09:30:13;;;;;;;4.80;3.30;;;13.90;99.90;;;;;;5092042;28;20428;-68
2023/05/18 09:32:40;;;;;;;3.50;3.20;;;14.00;99.90;;;;;;5093472;28;20434;-66
2023/05/18 09:35:07;;;;;;;8.20;2.80;;;14.20;99.90;;;;;;5092718;28;20378;-66
2023/05/18 09:37:33;;;;;;;4.63;2.87;;;14.30;99.90;;;;;;5093649;28;20366;-67
2023/05/18 09:40:01;;;;;;;4.83;3.43;;;14.50;99.90;;;;;;5093456;28;20378;-68
2023/05/18 09:42:34;;;;;;;9.17;3.80;;;14.80;99.90;;;;;;5092997;28;20402;-67
2023/05/18 09:45:00;;;;;;;4.93;3.00;;;15.40;99.90;;;;;;5092708;28;20429;-67
2023/05/18 09:47:31;;;;;;;4.90;2.87;;;15.80;99.90;;;;;;5093631;28;20868;-69
2023/05/18 09:49:57;;;;;;;3.10;2.27;;;16.20;99.90;;;;;;5093311;28;20172;-68
2023/05/18 09:52:23;;;;;;;5.27;2.87;;;16.70;99.90;;;;;;5092951;28;20415;-68
2023/05/18 09:54:58;;;;;;;9.37;2.63;;;17.10;99.90;;;;;;5093298;28;20621;-67
2023/05/18 09:57:24;;;;;;;3.20;2.73;;;17.20;99.90;;;;;;5093360;28;20401;-68
2023/05/18 09:59:55;;;;;;;6.53;2.30;;;17.60;99.90;;;;;;5093400;28;20495;-69
2023/05/18 10:02:24;;;;;;;6.50;2.63;;;17.50;99.90;;;;;;5092308;28;20193;-67
2023/05/18 10:04:50;;;;;;;2.57;2.37;;;17.60;99.90;;;;;;5093138;28;20408;-69
2023/05/18 10:07:16;;;;;;;5.00;2.40;;;17.60;99.90;;;;;;5093180;28;20405;-68
2023/05/18 10:09:44;;;;;;;7.47;2.60;;;17.80;99.90;;;;;;5093350;28;20447;-68
2023/05/18 10:12:14;;;;;;;8.60;2.80;;;17.80;99.90;;;;;;5092447;28;20396;-67
2023/05/18 10:14:41;;;;;;;6.13;2.90;;;17.60;99.90;;;;;;5093034;28;20753;-67
2023/05/18 10:17:09;;;;;;;3.20;2.27;;;17.70;99.90;;;;;;5093157;28;20568;-71
2023/05/18 10:19:37;;;;;;;4.03;2.50;;;18.00;99.90;;;;;;5091281;28;20506;-67
2023/05/18 10:22:04;;;;;;;7.67;2.80;;;18.10;99.90;;;;;;5091794;28;20403;-69
2023/05/18 10:24:34;;;;;;;4.20;2.30;;;18.20;99.90;;;;;;5091839;28;20431;-67
2023/05/18 10:27:04;;;;;;;10.87;2.40;;;18.00;99.90;;;;;;5093086;28;20891;-69
2023/05/18 10:29:32;;;;;;;6.23;2.67;;;18.30;99.90;;;;;;5092969;28;20812;-69
2023/05/18 10:32:02;;;;;;;10.93;5.67;;;18.40;99.90;;;;;;5092381;28;20841;-68
2023/05/18 10:34:29;;;;;;;2.80;2.07;;;18.80;99.90;;;;;;5093098;28;20453;-69
2023/05/18 10:36:56;;;;;;;7.07;2.60;;;19.20;99.90;;;;;;5092857;28;20487;-70
2023/05/18 10:39:23;;;;;;;3.00;2.20;;;19.10;99.90;;;;;;5092898;28;20395;-70
2023/05/18 10:41:53;;;;;;;6.97;3.10;;;19.20;99.90;;;;;;5091334;28;20414;-68
2023/05/18 10:44:23;;;;;;;6.87;2.93;;;19.30;99.90;;;;;;5091833;28;20792;-68
2023/05/18 10:46:49;;;;;;;10.53;2.33;;;19.30;99.90;;;;;;5092765;28;20465;-68
2023/05/18 10:49:18;;;;;;;3.80;2.20;;;19.10;99.90;;;;;;5092630;28;20483;-68
2023/05/18 10:51:46;;;;;;;4.53;3.00;;;18.70;99.90;;;;;;5092298;28;20799;-69
2023/05/18 10:54:13;;;;;;;5.00;2.60;;;18.70;99.90;;;;;;5092685;28;20841;-67
2023/05/18 10:56:48;;;;;;;3.90;2.60;;;18.90;99.90;;;;;;5091491;28;20811;-68
2023/05/18 10:59:14;;;;;;;3.03;2.47;;;19.00;99.90;;;;;;5091651;28;20414;-70
2023/05/18 11:01:41;;;;;;;5.07;2.17;;;19.10;99.90;;;;;;5092096;28;20741;-69
2023/05/18 11:04:07;;;;;;;8.10;3.70;;;19.40;99.90;;;;;;5092631;28;20454;-67
2023/05/18 11:06:34;;;;;;;8.13;4.63;;;19.80;99.90;;;;;;5094828;28;20443;-69
2023/05/18 11:09:00;;;;;;;2.83;2.60;;;20.20;99.90;;;;;;5096393;28;20189;-69
2023/05/18 11:11:30;;;;;;;9.20;2.93;;;20.30;99.90;;;;;;5095676;28;20407;-67
2023/05/18 11:14:02;;;;;;;5.70;2.83;;;20.30;99.90;;;;;;5096287;28;20419;-69
2023/05/18 11:16:41;;;;;;;6.23;2.70;;;20.80;99.90;;;;;;5095494;28;20404;-69
2023/05/18 11:19:11;;;;;;;7.20;3.27;;;21.30;99.90;;;;;;5096374;28;20407;-70
2023/05/18 11:21:40;;;;;;;5.83;2.30;;;21.70;99.90;;;;;;5095611;28;20432;-69
2023/05/18 11:24:31;;;;;;;7.47;2.23;;;22.10;99.90;;;;;;5096001;28;20504;-69
2023/05/18 11:27:12;;;;;;;3.70;2.60;;;22.30;99.90;;;;;;5096141;28;20403;-68
2023/05/18 11:29:49;;;;;;;5.20;2.10;;;22.40;99.90;;;;;;5095993;28;20467;-70
2023/05/18 11:32:28;;;;;;;3.87;2.70;;;22.40;99.90;;;;;;5095480;28;20946;-70
2023/05/18 11:34:55;;;;;;;5.00;3.17;;;22.20;99.90;;;;;;5095526;28;20498;-68
2023/05/18 11:37:38;;;;;;;3.03;2.57;;;22.30;99.90;;;;;;5095458;28;20748;-68
2023/05/18 11:40:12;;;;;;;5.53;3.47;;;22.60;99.90;;;;;;5095195;28;20411;-73
2023/05/18 11:42:38;;;;;;;2.30;2.10;;;22.80;99.90;;;;;;5095752;28;20442;-68
2023/05/18 11:45:11;;;;;;;7.67;2.70;;;23.00;99.90;;;;;;5095889;28;20399;-68
2023/05/18 11:47:39;;;;;;;4.47;2.63;;;22.70;99.90;;;;;;5095553;28;20458;-68
2023/05/18 11:50:10;;;;;;;4.43;2.73;;;22.90;99.90;;;;;;5095023;28;20429;-69
2023/05/18 11:52:51;;;;;;;5.33;3.23;;;23.20;99.90;;;;;;5095551;28;20427;-69
2023/05/18 11:55:18;;;;;;;2.70;2.20;;;23.70;99.90;;;;;;5093736;28;20794;-69
2023/05/18 11:57:47;;;;;;;7.27;3.50;;;23.20;99.90;;;;;;5095289;28;20510;-70
2023/05/18 12:00:14;;;;;;;7.03;2.27;;;22.70;99.90;;;;;;5094864;28;20408;-68
2023/05/18 12:02:45;;;;;;;5.10;2.60;;;23.40;99.90;;;;;;5095370;28;20427;-69
2023/05/18 12:05:11;;;;;;;2.73;1.73;;;23.20;99.90;;;;;;5095579;28;20415;-69
2023/05/18 12:07:38;;;;;;;5.70;2.30;;;23.30;99.90;;;;;;5094007;28;20783;-68
2023/05/18 12:10:11;;;;;;;6.83;2.60;;;23.10;99.90;;;;;;5094656;28;20400;-72
2023/05/18 12:12:38;;;;;;;9.30;2.30;;;23.10;99.90;;;;;;5095176;28;20461;-68
2023/05/18 12:15:09;;;;;;;7.13;2.37;;;23.00;99.90;;;;;;5094784;28;20423;-69
2023/05/18 12:17:45;;;;;;;5.77;2.70;;;22.60;99.90;;;;;;5093212;28;20400;-68
2023/05/18 12:20:23;;;;;;;4.37;1.93;;;22.70;99.90;;;;;;5092911;28;20415;-68
2023/05/18 12:22:52;;;;;;;4.53;2.40;;;23.20;99.90;;;;;;5094811;28;20431;-70
2023/05/18 12:25:19;;;;;;;6.10;2.23;;;23.10;99.90;;;;;;5095231;28;20475;-71
2023/05/18 12:27:48;;;;;;;6.50;2.03;;;23.20;99.90;;;;;;5095077;28;20512;-68
2023/05/18 12:30:14;;;;;;;2.50;2.30;;;22.30;99.90;;;;;;5094041;28;20403;-70
2023/05/18 12:32:45;;;;;;;6.30;2.80;;;21.50;99.90;;;;;;5094783;28;20560;-70
2023/05/18 12:35:11;;;;;;;3.70;2.40;;;20.40;99.90;;;;;;5094086;28;20406;-71
2023/05/18 12:37:46;;;;;;;5.43;2.90;;;20.10;99.90;;;;;;5094759;28;20819;-69
2023/05/18 12:40:14;;;;;;;3.70;2.70;;;20.30;99.90;;;;;;5093800;28;20161;-68
2023/05/18 12:42:53;;;;;;;5.47;3.03;;;20.00;99.90;;;;;;5094591;28;20422;-68
2023/05/18 12:45:22;;;;;;;6.13;3.00;;;19.60;99.90;;;;;;5094659;28;20392;-68
2023/05/18 12:47:52;;;;;;;5.10;2.80;;;19.70;99.90;;;;;;5094522;28;20447;-67
2023/05/18 12:50:19;;;;;;;6.23;2.87;;;19.60;99.90;;;;;;5093291;28;20399;-70
2023/05/18 12:52:44;;;;;;;4.73;3.00;;;19.80;99.90;;;;;;5093873;28;20419;-68
2023/05/18 12:55:21;;;;;;;6.37;2.83;;;20.00;99.90;;;;;;5094592;28;20410;-69